createdAt,value
2023-04-04T00:00:58.951Z,76.60
2023-04-04T00:03:27.667Z,76.70
2023-04-04T00:05:57.670Z,76.70
2023-04-04T00:08:26.291Z,76.80
2023-04-04T00:10:59.361Z,76.80
2023-04-04T00:13:28.207Z,76.90
2023-04-04T00:15:57.206Z,76.80
2023-04-04T00:18:25.716Z,76.80
2023-04-04T00:20:54.261Z,76.80
2023-04-04T00:23:24.173Z,76.90
2023-04-04T00:25:52.973Z,76.90
2023-04-04T00:28:22.175Z,77.00
2023-04-04T00:30:50.686Z,77.00
2023-04-04T00:33:19.294Z,77.00
2023-04-04T00:35:49.673Z,77.10
2023-04-04T00:38:18.271Z,77.10
2023-04-04T00:40:51.912Z,77.10
2023-04-04T00:43:20.555Z,77.30
2023-04-04T00:45:49.217Z,77.20
2023-04-04T00:48:18.064Z,77.30
2023-04-04T00:50:46.616Z,77.40
2023-04-04T00:53:15.165Z,77.30
2023-04-04T00:55:44.391Z,77.30
2023-04-04T00:58:14.224Z,77.30
2023-04-04T01:00:43.237Z,77.20
2023-04-04T01:03:12.817Z,77.30
2023-04-04T01:05:42.539Z,77.40
2023-04-04T01:08:11.182Z,77.30
2023-04-04T01:10:41.108Z,77.30
2023-04-04T01:13:10.547Z,77.30
2023-04-04T01:15:41.155Z,77.40
2023-04-04T01:18:12.876Z,77.30
2023-04-04T01:20:49.340Z,77.50
2023-04-04T01:23:19.574Z,77.50
2023-04-04T01:25:50.920Z,77.40
2023-04-04T01:28:19.421Z,77.30
2023-04-04T01:30:47.970Z,77.30
2023-04-04T01:33:24.743Z,77.30
2023-04-04T01:36:01.540Z,77.50
2023-04-04T01:38:39.553Z,77.50
2023-04-04T01:41:12.054Z,77.50
2023-04-04T01:43:47.337Z,77.50
2023-04-04T01:46:18.641Z,77.60
2023-04-04T01:48:49.553Z,77.50
2023-04-04T01:51:23.809Z,77.50
2023-04-04T01:53:53.657Z,78.30
2023-04-04T01:56:23.672Z,77.40
2023-04-04T01:58:52.565Z,77.50
2023-04-04T02:01:21.314Z,77.50
2023-04-04T02:03:49.945Z,77.50
2023-04-04T02:06:18.446Z,77.50
2023-04-04T02:08:48.092Z,77.60
2023-04-04T02:11:16.914Z,77.60
2023-04-04T02:13:46.772Z,77.50
2023-04-04T02:16:19.610Z,77.50
2023-04-04T02:18:48.374Z,77.50
2023-04-04T02:21:16.997Z,77.60
2023-04-04T02:23:45.459Z,77.50
2023-04-04T02:26:14.002Z,77.60
2023-04-04T02:28:42.492Z,77.60
2023-04-04T02:31:13.383Z,77.60
2023-04-04T02:33:41.991Z,77.70
2023-04-04T02:36:12.092Z,77.70
2023-04-04T02:38:41.411Z,77.80
2023-04-04T02:41:10.596Z,77.80
2023-04-04T02:43:39.087Z,78.60
2023-04-04T02:46:21.165Z,77.90
2023-04-04T02:48:54.845Z,77.90
2023-04-04T02:51:23.830Z,77.90
2023-04-04T02:53:52.375Z,77.90
2023-04-04T02:56:26.607Z,77.90
2023-04-04T02:58:55.701Z,77.90
2023-04-04T03:01:24.563Z,78.00
2023-04-04T03:03:54.717Z,78.10
2023-04-04T03:06:24.361Z,78.10
2023-04-04T03:08:52.870Z,78.20
2023-04-04T03:11:21.761Z,78.10
2023-04-04T03:13:52.488Z,78.20
2023-04-04T03:16:27.274Z,78.30
2023-04-04T03:18:57.866Z,78.30
2023-04-04T03:21:26.462Z,78.30
2023-04-04T03:23:57.908Z,78.20
2023-04-04T03:26:28.342Z,78.20
2023-04-04T03:28:57.402Z,78.30
2023-04-04T03:31:27.478Z,78.20
2023-04-04T03:33:57.564Z,79.00
2023-04-04T03:36:26.121Z,78.20
2023-04-04T03:38:54.697Z,78.30
2023-04-04T03:41:23.307Z,78.20
2023-04-04T03:43:51.809Z,78.30
2023-04-04T03:46:20.401Z,78.30
2023-04-04T03:48:49.587Z,78.30
2023-04-04T03:51:25.660Z,78.40
2023-04-04T03:53:54.476Z,78.40
2023-04-04T03:56:23.103Z,78.40
2023-04-04T03:58:51.711Z,78.50
2023-04-04T04:01:23.211Z,78.50
2023-04-04T04:03:51.903Z,78.70
2023-04-04T04:06:20.512Z,78.50
2023-04-04T04:08:51.987Z,78.60
2023-04-04T04:11:20.764Z,78.60
2023-04-04T04:13:49.345Z,78.60
2023-04-04T04:16:17.874Z,78.50
2023-04-04T04:18:47.125Z,78.60
2023-04-04T04:21:22.675Z,78.60
2023-04-04T04:23:52.932Z,78.60
2023-04-04T04:26:21.507Z,78.50
2023-04-04T04:28:50.162Z,78.50
2023-04-04T04:31:23.938Z,78.50
2023-04-04T04:33:53.993Z,78.50
2023-04-04T04:36:27.395Z,79.20
2023-04-04T04:39:16.222Z,78.60
2023-04-04T04:41:57.932Z,78.60
2023-04-04T04:44:27.261Z,78.60
2023-04-04T04:46:57.847Z,78.80
2023-04-04T04:49:26.646Z,78.80
2023-04-04T04:51:56.135Z,78.70
2023-04-04T04:54:26.342Z,78.70
2023-04-04T04:56:56.643Z,78.80
2023-04-04T04:59:27.277Z,78.80
2023-04-04T05:01:56.530Z,78.80
2023-04-04T05:04:27.193Z,78.90
2023-04-04T05:07:08.309Z,79.00
2023-04-04T05:09:38.590Z,79.10
2023-04-04T05:12:07.914Z,79.20
2023-04-04T05:14:41.970Z,79.20
2023-04-04T05:17:10.493Z,79.00
2023-04-04T05:19:39.241Z,79.20
2023-04-04T05:22:08.645Z,79.30
2023-04-04T05:24:43.947Z,79.30
2023-04-04T05:27:16.563Z,79.40
2023-04-04T05:29:49.775Z,79.40
2023-04-04T05:32:18.327Z,79.50
2023-04-04T05:34:55.145Z,79.60
2023-04-04T05:37:24.100Z,79.70
2023-04-04T05:39:55.120Z,79.80
2023-04-04T05:42:24.372Z,79.90
2023-04-04T05:44:56.594Z,80.00
2023-04-04T05:47:29.113Z,80.00
2023-04-04T05:49:57.959Z,80.00
2023-04-04T05:52:26.647Z,80.30
2023-04-04T05:54:57.335Z,80.30
2023-04-04T05:57:30.555Z,80.40
2023-04-04T06:00:00.659Z,80.50
2023-04-04T06:02:30.099Z,80.70
2023-04-04T06:05:03.543Z,80.80
2023-04-04T06:07:35.616Z,81.10
2023-04-04T06:10:07.329Z,81.70
2023-04-04T06:12:37.381Z,82.60
2023-04-04T06:15:10.598Z,83.90
2023-04-04T06:17:41.211Z,85.30
2023-04-04T06:20:10.985Z,87.20
2023-04-04T06:22:39.469Z,89.30
2023-04-04T06:25:11.524Z,90.60
2023-04-04T06:27:41.232Z,91.30
2023-04-04T06:30:11.819Z,91.60
2023-04-04T06:32:41.158Z,91.70
2023-04-04T06:35:14.168Z,91.60
2023-04-04T06:37:47.242Z,91.80
2023-04-04T06:40:20.483Z,92.40
2023-04-04T06:42:50.554Z,93.20
2023-04-04T06:45:19.528Z,94.20
2023-04-04T06:47:50.112Z,95.00
2023-04-04T06:50:19.115Z,95.50
2023-04-04T06:52:50.372Z,95.70
2023-04-04T06:55:20.468Z,96.20
2023-04-04T06:57:49.004Z,96.70
2023-04-04T07:00:18.102Z,97.30
2023-04-04T07:02:46.871Z,98.10
2023-04-04T07:05:18.032Z,98.70
2023-04-04T07:07:47.635Z,99.40
2023-04-04T07:10:16.249Z,99.90
2023-04-04T07:12:46.261Z,99.90
2023-04-04T07:15:15.051Z,99.90
2023-04-04T07:17:43.615Z,99.90
2023-04-04T07:20:12.779Z,99.90
2023-04-04T07:22:42.480Z,99.90
2023-04-04T07:25:12.310Z,99.90
2023-04-04T07:27:41.969Z,99.90
2023-04-04T07:30:13.512Z,99.90
2023-04-04T07:32:42.164Z,99.90
2023-04-04T07:35:11.117Z,99.90
2023-04-04T07:37:39.704Z,99.90
2023-04-04T07:40:09.679Z,99.90
2023-04-04T07:42:44.277Z,99.90
2023-04-04T07:45:14.772Z,99.90
2023-04-04T07:47:44.976Z,99.90
2023-04-04T07:50:15.055Z,99.90
2023-04-04T07:52:44.182Z,99.90
2023-04-04T07:55:14.443Z,99.90
2023-04-04T07:57:44.721Z,99.90
2023-04-04T08:00:17.550Z,99.90
2023-04-04T08:02:46.608Z,99.90
2023-04-04T08:05:15.495Z,99.90
2023-04-04T08:07:44.133Z,99.90
2023-04-04T08:10:12.767Z,99.90
2023-04-04T08:12:41.510Z,99.90
2023-04-04T08:15:11.472Z,99.90
2023-04-04T08:17:43.384Z,99.90
2023-04-04T08:20:13.819Z,99.90
2023-04-04T08:22:43.683Z,99.90
2023-04-04T08:25:12.714Z,99.90
2023-04-04T08:27:44.221Z,99.90
2023-04-04T08:30:14.656Z,99.90
2023-04-04T08:32:46.073Z,99.90
2023-04-04T08:35:14.698Z,99.90
2023-04-04T08:37:45.693Z,99.90
2023-04-04T08:40:14.637Z,99.90
2023-04-04T08:42:44.367Z,99.90
2023-04-04T08:45:14.450Z,99.90
2023-04-04T08:47:45.640Z,99.90
2023-04-04T08:50:14.268Z,99.90
2023-04-04T08:52:44.838Z,99.90
2023-04-04T08:55:14.474Z,99.90
2023-04-04T08:57:43.447Z,99.90
2023-04-04T09:00:13.147Z,99.90
2023-04-04T09:02:50.338Z,99.90
2023-04-04T09:05:19.549Z,99.90
2023-04-04T09:07:49.043Z,99.90
2023-04-04T09:10:17.723Z,99.90
2023-04-04T09:12:48.484Z,99.90
2023-04-04T09:15:17.397Z,99.90
2023-04-04T09:17:47.353Z,99.90
2023-04-04T09:20:35.724Z,99.90
2023-04-04T09:23:07.801Z,99.90
2023-04-04T09:25:37.083Z,99.90
2023-04-04T09:28:06.242Z,99.90
2023-04-04T09:30:35.888Z,99.90
2023-04-04T09:33:07.457Z,99.90
2023-04-04T09:35:38.393Z,99.90
2023-04-04T09:38:07.501Z,99.90
2023-04-04T09:40:37.290Z,99.90
2023-04-04T09:43:08.938Z,99.90
2023-04-04T09:45:40.426Z,99.90
2023-04-04T09:48:11.393Z,99.90
2023-04-04T09:50:47.477Z,99.90
2023-04-04T09:53:19.142Z,99.90
2023-04-04T09:55:51.923Z,99.90
2023-04-04T09:58:25.991Z,99.90
2023-04-04T10:00:56.817Z,99.90
2023-04-04T10:03:27.704Z,99.90
2023-04-04T10:05:58.796Z,99.90
2023-04-04T10:08:29.280Z,99.90
2023-04-04T10:11:10.539Z,99.90
2023-04-04T10:13:43.872Z,99.90
2023-04-04T10:16:12.775Z,99.40
2023-04-04T10:18:43.323Z,98.80
2023-04-04T10:21:15.904Z,97.90
2023-04-04T10:23:47.728Z,97.60
2023-04-04T10:26:17.469Z,97.30
2023-04-04T10:28:46.570Z,96.90
2023-04-04T10:31:21.599Z,96.50
2023-04-04T10:34:00.142Z,96.10
2023-04-04T10:36:32.059Z,95.80
2023-04-04T10:39:11.669Z,95.60
2023-04-04T10:41:42.062Z,95.60
2023-04-04T10:44:19.662Z,95.30
2023-04-04T10:46:52.848Z,94.90
2023-04-04T10:49:26.901Z,94.40
2023-04-04T10:51:57.561Z,94.10
2023-04-04T10:54:29.209Z,93.50
2023-04-04T10:57:01.539Z,93.10
2023-04-04T10:59:34.165Z,93.40
2023-04-04T11:02:06.969Z,93.10
2023-04-04T11:04:42.709Z,93.10
2023-04-04T11:07:12.688Z,93.00
2023-04-04T11:09:52.460Z,92.90
2023-04-04T11:12:29.849Z,93.40
2023-04-04T11:15:08.440Z,93.10
2023-04-04T11:18:00.104Z,93.00
2023-04-04T11:20:35.612Z,93.50
2023-04-04T11:23:05.762Z,93.40
2023-04-04T11:25:39.808Z,93.00
2023-04-04T11:28:14.722Z,92.70
2023-04-04T11:30:51.257Z,92.70
2023-04-04T11:33:30.159Z,92.60
2023-04-04T11:36:08.533Z,92.20
2023-04-04T11:38:41.774Z,92.00
2023-04-04T11:41:10.709Z,91.80
2023-04-04T11:43:46.649Z,91.60
2023-04-04T11:46:19.689Z,91.80
2023-04-04T11:48:49.427Z,91.80
2023-04-04T11:51:20.194Z,91.80
2023-04-04T11:53:49.258Z,91.60
2023-04-04T11:56:18.317Z,91.20
2023-04-04T11:58:56.093Z,91.00
2023-04-04T12:01:31.035Z,91.00
2023-04-04T12:04:01.291Z,90.40
2023-04-04T12:06:35.465Z,89.80
2023-04-04T12:09:07.048Z,89.90
2023-04-04T12:11:36.325Z,89.80
2023-04-04T12:14:05.034Z,88.90
2023-04-04T12:16:33.687Z,88.70
2023-04-04T12:19:02.965Z,88.40
2023-04-04T12:21:34.210Z,87.60
2023-04-04T12:24:02.863Z,87.30
2023-04-04T12:26:32.787Z,87.00
2023-04-04T12:29:01.556Z,87.10
2023-04-04T12:31:30.809Z,86.60
2023-04-04T12:33:59.705Z,86.10
2023-04-04T12:36:30.102Z,85.80
2023-04-04T12:39:06.543Z,85.60
2023-04-04T12:41:36.124Z,85.00
2023-04-04T12:44:05.596Z,84.00
2023-04-04T12:46:39.841Z,84.10
2023-04-04T12:49:09.431Z,83.50
2023-04-04T12:51:39.370Z,83.90
2023-04-04T12:54:09.384Z,82.40
2023-04-04T12:56:38.129Z,81.80
2023-04-04T12:59:10.943Z,81.00
2023-04-04T13:01:39.744Z,80.00
2023-04-04T13:04:09.969Z,79.00
2023-04-04T13:09:07.782Z,78.30
2023-04-04T13:11:59.918Z,78.10
2023-04-04T13:14:29.191Z,77.60
2023-04-04T13:17:06.266Z,77.80
2023-04-04T13:19:35.059Z,77.40
2023-04-04T13:22:04.004Z,76.70
2023-04-04T13:24:32.544Z,76.20
2023-04-04T13:27:02.470Z,76.30
2023-04-04T13:29:31.167Z,76.10
2023-04-04T13:31:59.821Z,76.10
2023-04-04T13:34:28.561Z,75.90
2023-04-04T13:36:57.869Z,76.00
2023-04-04T13:39:26.576Z,75.90
2023-04-04T13:41:55.132Z,76.10
2023-04-04T13:44:27.119Z,76.50
2023-04-04T13:46:55.866Z,76.50
2023-04-04T13:49:24.556Z,75.90
2023-04-04T13:51:53.107Z,75.20
2023-04-04T13:54:21.736Z,74.40
2023-04-04T13:56:50.233Z,74.40
2023-04-04T13:59:18.856Z,73.90
2023-04-04T14:01:48.815Z,73.60
2023-04-04T14:04:23.753Z,73.20
2023-04-04T14:06:52.978Z,73.50
2023-04-04T14:09:22.149Z,72.90
2023-04-04T14:11:50.717Z,72.90
2023-04-04T14:14:19.262Z,73.50
2023-04-04T14:16:49.144Z,72.60
2023-04-04T14:19:17.638Z,72.10
2023-04-04T14:21:46.190Z,71.90
2023-04-04T14:24:14.759Z,71.50
2023-04-04T14:26:43.313Z,71.20
2023-04-04T14:29:11.881Z,70.30
2023-04-04T14:31:40.744Z,69.90
2023-04-04T14:34:10.779Z,69.90
2023-04-04T14:36:39.397Z,69.70
2023-04-04T14:39:07.968Z,69.70
2023-04-04T14:41:36.544Z,69.90
2023-04-04T14:44:05.198Z,70.00
2023-04-04T14:46:34.442Z,69.80
2023-04-04T14:49:05.772Z,69.40
2023-04-04T14:51:35.769Z,69.20
2023-04-04T14:54:04.320Z,69.40
2023-04-04T14:56:32.881Z,69.40
2023-04-04T14:59:02.676Z,69.40
2023-04-04T15:01:31.312Z,69.30
2023-04-04T15:04:00.137Z,69.40
2023-04-04T15:06:31.899Z,70.10
2023-04-04T15:09:04.166Z,69.10
2023-04-04T15:11:33.456Z,68.50
2023-04-04T15:14:02.042Z,68.50
2023-04-04T15:16:33.448Z,68.30
2023-04-04T15:19:02.297Z,67.80
2023-04-04T15:21:31.748Z,67.70
2023-04-04T15:24:01.767Z,67.80
2023-04-04T15:26:30.434Z,67.90
2023-04-04T15:28:59.004Z,67.90
2023-04-04T15:31:28.097Z,67.40
2023-04-04T15:33:59.245Z,67.20
2023-04-04T15:36:28.973Z,66.90
2023-04-04T15:38:57.760Z,66.90
2023-04-04T15:41:28.125Z,66.70
2023-04-04T15:43:56.711Z,66.80
2023-04-04T15:46:25.402Z,66.70
2023-04-04T15:48:54.034Z,67.30
2023-04-04T15:51:23.107Z,66.70
2023-04-04T15:53:55.303Z,66.80
2023-04-04T15:56:24.090Z,67.00
2023-04-04T15:58:55.115Z,67.20
2023-04-04T16:01:24.100Z,67.00
2023-04-04T16:03:53.038Z,66.90
2023-04-04T16:06:21.727Z,66.60
2023-04-04T16:08:50.295Z,66.50
2023-04-04T16:11:19.409Z,66.30
2023-04-04T16:13:48.000Z,66.20
2023-04-04T16:16:18.083Z,66.20
2023-04-04T16:18:46.792Z,66.10
2023-04-04T16:21:16.610Z,65.90
2023-04-04T16:23:45.199Z,65.60
2023-04-04T16:26:13.766Z,65.30
2023-04-04T16:28:43.159Z,65.10
2023-04-04T16:31:15.338Z,64.80
2023-04-04T16:33:45.262Z,64.70
2023-04-04T16:36:14.339Z,64.60
2023-04-04T16:38:42.935Z,64.60
2023-04-04T16:41:11.540Z,64.50
2023-04-04T16:43:40.138Z,64.60
2023-04-04T16:46:08.679Z,64.30
2023-04-04T16:48:37.192Z,64.40
2023-04-04T16:51:07.468Z,64.40
2023-04-04T16:53:36.071Z,64.50
2023-04-04T16:56:04.879Z,64.50
2023-04-04T16:58:33.452Z,64.30
2023-04-04T17:01:02.205Z,64.30
2023-04-04T17:03:30.893Z,64.20
2023-04-04T17:06:00.495Z,64.40
2023-04-04T17:08:30.410Z,64.70
2023-04-04T17:10:59.034Z,64.60
2023-04-04T17:13:27.588Z,64.50
2023-04-04T17:15:56.571Z,64.60
2023-04-04T17:18:25.371Z,64.70
2023-04-04T17:20:54.024Z,65.00
2023-04-04T17:23:22.579Z,64.90
2023-04-04T17:25:52.540Z,64.80
2023-04-04T17:28:21.557Z,64.80
2023-04-04T17:30:50.156Z,64.90
2023-04-04T17:33:18.813Z,64.70
2023-04-04T17:35:48.212Z,64.80
2023-04-04T17:38:17.004Z,64.60
2023-04-04T17:40:45.557Z,64.70
2023-04-04T17:43:15.585Z,64.60
2023-04-04T17:45:44.361Z,64.70
2023-04-04T17:48:13.089Z,64.70
2023-04-04T17:50:42.938Z,65.70
2023-04-04T17:53:12.335Z,65.60
2023-04-04T17:55:41.105Z,65.80
2023-04-04T17:58:09.692Z,65.90
2023-04-04T18:00:39.906Z,65.80
2023-04-04T18:03:09.212Z,65.90
2023-04-04T18:05:37.823Z,65.90
2023-04-04T18:08:06.378Z,65.90
2023-04-04T18:10:34.946Z,65.90
2023-04-04T18:13:03.502Z,65.90
2023-04-04T18:15:32.528Z,66.00
2023-04-04T18:18:02.576Z,66.10
2023-04-04T18:20:34.887Z,66.00
2023-04-04T18:23:04.486Z,66.10
2023-04-04T18:25:34.305Z,66.00
2023-04-04T18:28:03.192Z,66.10
2023-04-04T18:30:32.019Z,66.90
2023-04-04T18:33:02.089Z,66.20
2023-04-04T18:35:30.843Z,66.20
2023-04-04T18:37:59.824Z,66.40
2023-04-04T18:40:28.325Z,66.30
2023-04-04T18:42:57.030Z,66.40
2023-04-04T18:45:33.614Z,66.50
2023-04-04T18:48:08.269Z,66.60
2023-04-04T18:50:37.031Z,66.60
2023-04-04T18:53:05.593Z,66.40
2023-04-04T18:55:34.177Z,66.60
2023-04-04T18:58:02.730Z,66.60
2023-04-04T19:00:31.531Z,66.50
2023-04-04T19:03:00.127Z,66.70
2023-04-04T19:05:33.699Z,66.50
2023-04-04T19:08:03.327Z,66.60
2023-04-04T19:10:32.782Z,66.70
2023-04-04T19:13:01.417Z,66.80
2023-04-04T19:15:30.334Z,66.70
2023-04-04T19:17:58.917Z,66.90
2023-04-04T19:20:28.989Z,67.10
2023-04-04T19:22:57.715Z,67.00
2023-04-04T19:25:26.525Z,67.40
2023-04-04T19:27:55.136Z,67.30
2023-04-04T19:30:42.894Z,67.30
2023-04-04T19:33:12.399Z,67.60
2023-04-04T19:35:54.782Z,67.60
2023-04-04T19:38:25.603Z,67.90
2023-04-04T19:40:57.899Z,67.70
2023-04-04T19:43:27.173Z,67.60
2023-04-04T19:45:56.882Z,67.60
2023-04-04T19:48:43.482Z,67.70
2023-04-04T19:51:52.566Z,68.10
2023-04-04T19:54:26.631Z,68.10
2023-04-04T19:57:00.359Z,67.90
2023-04-04T19:59:56.697Z,67.90
2023-04-04T20:03:01.979Z,68.10
2023-04-04T20:06:03.266Z,68.30
2023-04-04T20:08:43.939Z,68.20
2023-04-04T20:11:13.749Z,68.10
2023-04-04T20:13:42.970Z,68.10
2023-04-04T20:16:13.019Z,68.40
2023-04-04T20:18:43.919Z,68.30
2023-04-04T20:21:15.088Z,68.50
2023-04-04T20:23:52.492Z,68.50
2023-04-04T20:26:51.315Z,68.60
2023-04-04T20:29:22.701Z,68.60
2023-04-04T20:31:53.593Z,68.40
2023-04-04T20:34:42.687Z,68.60
2023-04-04T20:37:13.927Z,68.70
2023-04-04T20:39:49.307Z,68.60
2023-04-04T20:42:40.137Z,68.90
2023-04-04T20:45:37.757Z,68.90
2023-04-04T20:48:07.809Z,69.00
2023-04-04T20:50:47.267Z,68.80
2023-04-04T20:53:20.194Z,69.20
2023-04-04T20:55:51.466Z,69.00
2023-04-04T20:58:37.700Z,69.00
2023-04-04T21:01:10.115Z,69.30
2023-04-04T21:03:38.805Z,69.10
2023-04-04T21:06:13.245Z,69.00
2023-04-04T21:08:44.536Z,69.30
2023-04-04T21:11:17.270Z,69.30
2023-04-04T21:13:46.887Z,69.20
2023-04-04T21:16:17.731Z,69.30
2023-04-04T21:18:47.089Z,69.40
2023-04-04T21:21:19.711Z,69.30
2023-04-04T21:23:50.995Z,69.40
2023-04-04T21:26:33.497Z,69.70
2023-04-04T21:29:03.830Z,69.80
2023-04-04T21:31:37.763Z,69.40
2023-04-04T21:34:13.205Z,69.60
2023-04-04T21:36:42.611Z,69.70
2023-04-04T21:39:13.894Z,69.50
2023-04-04T21:41:45.096Z,69.50
2023-04-04T21:44:13.672Z,69.50
2023-04-04T21:46:43.042Z,69.40
2023-04-04T21:49:12.437Z,69.40
2023-04-04T21:51:41.057Z,69.40
2023-04-04T21:54:09.708Z,69.30
2023-04-04T21:56:38.726Z,69.40
2023-04-04T21:59:10.142Z,69.30
2023-04-04T22:01:39.221Z,69.40
2023-04-04T22:04:08.021Z,69.40
2023-04-04T22:06:36.577Z,69.30
2023-04-04T22:09:06.583Z,70.00
2023-04-04T22:11:38.805Z,69.20
2023-04-04T22:14:08.849Z,69.20
2023-04-04T22:16:39.712Z,69.20
2023-04-04T22:19:11.040Z,69.20
2023-04-04T22:21:47.692Z,69.50
2023-04-04T22:24:17.758Z,69.30
2023-04-04T22:26:46.834Z,69.40
2023-04-04T22:29:16.801Z,69.40
2023-04-04T22:31:45.363Z,69.50
2023-04-04T22:34:15.120Z,69.40
2023-04-04T22:36:44.849Z,69.50
2023-04-04T22:39:15.866Z,69.60
2023-04-04T22:41:45.547Z,69.50
2023-04-04T22:44:14.225Z,69.40
2023-04-04T22:46:44.121Z,69.40
2023-04-04T22:49:13.371Z,69.40
2023-04-04T22:51:45.590Z,69.30
2023-04-04T22:54:16.234Z,69.50
2023-04-04T22:56:45.370Z,69.40
2023-04-04T22:59:14.187Z,69.40
2023-04-04T23:01:44.252Z,69.40
2023-04-04T23:04:13.025Z,69.50
2023-04-04T23:06:41.564Z,69.40
2023-04-04T23:09:10.083Z,69.40
2023-04-04T23:11:39.247Z,69.40
2023-04-04T23:14:09.651Z,69.50
2023-04-04T23:16:38.600Z,69.50
2023-04-04T23:19:08.564Z,69.40
2023-04-04T23:21:37.748Z,69.40
2023-04-04T23:24:07.621Z,69.50
2023-04-04T23:26:36.379Z,69.40
2023-04-04T23:29:05.749Z,69.30
2023-04-04T23:31:36.316Z,69.40
2023-04-04T23:34:04.926Z,69.60
2023-04-04T23:36:34.982Z,69.40
2023-04-04T23:39:03.590Z,69.50
2023-04-04T23:41:32.835Z,69.40
2023-04-04T23:44:01.495Z,69.50
2023-04-04T23:46:32.708Z,69.50
2023-04-04T23:49:01.814Z,69.40
2023-04-04T23:51:37.904Z,69.50
2023-04-04T23:54:08.442Z,69.50
2023-04-04T23:56:37.502Z,69.50
2023-04-04T23:59:06.578Z,69.50
